Time;durP1;ratioP1;P1;durP2;ratioP2;P2;SDS_P1;SDS_P2;PMS_P1;PMS_P2;Temp;Humidity;BMP_temperature;BMP_pressure;BME280_temperature;BME280_humidity;BME280_pressure;Samples;Min_cycle;Max_cycle;Signal;HPM_P1;HPM_P2
2023/09/16 00:01:17;;;;;;;2.30;1.20;;;;;;;36.44;17.49;100478.81;4982302;28;20129;-78
2023/09/16 00:03:46;;;;;;;5.15;1.70;;;;;;;36.41;18.08;100471.00;4981281;28;20164;-76
2023/09/16 00:06:15;;;;;;;3.55;1.40;;;;;;;36.35;18.06;100471.50;4982607;28;20566;-78
2023/09/16 00:08:45;;;;;;;3.60;1.58;;;;;;;36.32;17.48;100463.69;4988230;28;20129;-76
2023/09/16 00:11:14;;;;;;;2.15;1.48;;;;;;;36.30;18.35;100466.50;4987069;28;20080;-75
2023/09/16 00:13:46;;;;;;;1.92;1.20;;;;;;;36.30;18.29;100466.50;4981886;28;20077;-76
2023/09/16 00:16:16;;;;;;;4.20;1.52;;;;;;;36.26;17.77;100463.22;4985460;28;20791;-76
2023/09/16 00:18:45;;;;;;;4.82;1.58;;;;;;;36.22;14.82;100452.84;4978109;28;20047;-76
2023/09/16 00:21:25;;;;;;;2.78;1.30;;;;;;;36.17;17.23;100453.22;4981048;28;20166;-76
2023/09/16 00:24:01;;;;;;;5.55;1.40;;;;;;;36.12;16.35;100452.72;4970395;28;20046;-76
2023/09/16 00:26:39;;;;;;;1.88;1.42;;;;;;;36.04;17.18;100444.41;4976988;28;20133;-76
2023/09/16 00:29:10;;;;;;;4.85;1.38;;;;;;;35.98;16.21;100444.91;4989818;28;20063;-76
2023/09/16 00:31:39;;;;;;;5.20;1.45;;;;;;;35.93;16.93;100442.59;4990493;28;20053;-75
2023/09/16 00:34:08;;;;;;;2.42;1.48;;;;;;;35.91;16.10;100439.16;4996307;28;20694;-76
2023/09/16 00:36:37;;;;;;;4.85;1.40;;;;;;;35.85;18.15;100439.66;5004375;28;20085;-76
2023/09/16 00:39:06;;;;;;;2.83;1.30;;;;;;;35.73;17.37;100429.91;4995449;28;20046;-76
2023/09/16 00:41:35;;;;;;;5.55;1.50;;;;;;;35.64;17.83;100435.09;4991061;28;20582;-76
2023/09/16 00:44:03;;;;;;;2.70;1.25;;;;;;;35.58;16.73;100432.00;4993711;28;20046;-76
2023/09/16 00:46:34;;;;;;;2.13;1.27;;;;;;;35.52;18.88;100429.78;4997497;28;20056;-76
2023/09/16 00:49:03;;;;;;;4.57;1.40;;;;;;;35.41;20.07;100431.50;5002978;28;20730;-75
2023/09/16 00:51:32;;;;;;;1.98;1.27;;;;;;;35.29;17.34;100432.50;5009790;28;20085;-76
2023/09/16 00:54:02;;;;;;;1.77;1.17;;;;;;;35.15;17.71;100436.28;5003008;28;20076;-75
2023/09/16 00:56:31;;;;;;;2.58;1.23;;;;;;;35.06;18.07;100431.59;4997583;28;20524;-77
2023/09/16 00:59:00;;;;;;;2.67;1.05;;;;;;;34.95;18.54;100428.88;4993874;28;20072;-76
2023/09/16 01:01:36;;;;;;;3.95;1.13;;;;;;;34.83;18.00;100423.47;5001840;28;20737;-75
2023/09/16 01:04:07;;;;;;;3.00;1.20;;;;;;;34.65;18.62;100411.47;4982632;28;20047;-77
2023/09/16 01:06:36;;;;;;;3.35;1.45;;;;;;;34.62;19.49;100419.78;4997399;28;20113;-76
2023/09/16 01:09:08;;;;;;;2.50;1.20;;;;;;;34.50;19.82;100412.59;5004058;28;20415;-77
2023/09/16 01:11:38;;;;;;;3.90;1.58;;;;;;;34.39;19.28;100417.00;5003270;28;20062;-77
2023/09/16 01:14:07;;;;;;;5.95;1.55;;;;;;;34.27;19.80;100415.25;5006487;28;20511;-77
2023/09/16 01:16:42;;;;;;;3.15;1.60;;;;;;;34.15;19.72;100413.47;5000957;28;20074;-76
2023/09/16 01:19:18;;;;;;;3.30;1.40;;;;;;;34.06;20.46;100414.97;4997911;28;20046;-75
2023/09/16 01:21:48;;;;;;;2.35;1.42;;;;;;;33.95;20.27;100415.78;4999667;28;20403;-75
2023/09/16 01:24:23;;;;;;;3.17;1.30;;;;;;;33.86;21.28;100412.91;5009099;28;20392;-76
2023/09/16 01:26:55;;;;;;;6.05;1.35;;;;;;;33.75;20.45;100411.03;4994880;28;20504;-76
2023/09/16 01:29:25;;;;;;;2.45;1.17;;;;;;;33.64;21.30;100405.59;4999148;28;20042;-75
2023/09/16 01:31:55;;;;;;;2.63;1.50;;;;;;;33.53;21.79;100412.53;5005409;28;20062;-75
2023/09/16 01:34:30;;;;;;;4.20;1.52;;;;;;;33.43;23.14;100416.88;4999236;28;20365;-76
2023/09/16 01:37:01;;;;;;;4.47;1.50;;;;;;;33.29;25.05;100409.81;4994943;28;20613;-76
2023/09/16 01:39:32;;;;;;;3.22;1.25;;;;;;;33.16;26.12;100404.44;4990915;28;20050;-76
2023/09/16 01:42:03;;;;;;;;;;;;;;;33.06;25.92;100408.75;4996996;28;20057;-76
2023/09/16 01:44:31;;;;;;;4.45;1.55;;;;;;;32.93;25.65;100408.72;4999173;28;19932;-75
2023/09/16 01:47:00;;;;;;;7.10;1.77;;;;;;;32.80;24.72;100404.31;5002182;28;20725;-75
2023/09/16 01:49:29;;;;;;;5.03;1.50;;;;;;;32.66;25.30;100411.47;5002192;28;20061;-76
2023/09/16 01:51:58;;;;;;;3.83;1.50;;;;;;;32.48;24.98;100397.50;4990193;28;20137;-75
2023/09/16 01:54:26;;;;;;;2.72;1.60;;;;;;;32.38;25.14;100411.63;4996454;28;20113;-75
2023/09/16 01:56:57;;;;;;;3.20;1.42;;;;;;;32.25;24.97;100416.91;5006391;28;20515;-75
2023/09/16 01:59:28;;;;;;;10.45;1.77;;;;;;;32.12;24.91;100414.22;5007127;28;20056;-74
2023/09/16 02:01:56;;;;;;;7.87;1.67;;;;;;;31.96;24.76;100416.16;5009804;28;20058;-76
2023/09/16 02:04:25;;;;;;;6.18;1.48;;;;;;;31.79;27.25;100420.75;4999659;28;20531;-75
2023/09/16 02:06:55;;;;;;;4.30;1.35;;;;;;;31.57;25.54;100409.75;5007223;28;20046;-75
2023/09/16 02:09:24;;;;;;;5.80;1.60;;;;;;;31.38;25.06;100404.66;5000587;28;20535;-75
2023/09/16 02:11:53;;;;;;;4.82;1.67;;;;;;;31.20;25.95;100412.91;5009285;28;20077;-76
2023/09/16 02:14:22;;;;;;;3.58;1.48;;;;;;;31.03;27.40;100408.56;4998130;28;20519;-78
2023/09/16 02:16:52;;;;;;;4.25;1.70;;;;;;;30.88;28.98;100415.72;5004583;28;20570;-75
2023/09/16 02:19:25;;;;;;;2.42;1.70;;;;;;;30.72;28.08;100414.03;5003401;28;20046;-76
2023/09/16 02:21:54;;;;;;;4.13;2.08;;;;;;;30.59;27.66;100417.44;5004067;28;20142;-77
2023/09/16 02:24:22;;;;;;;4.75;2.10;;;;;;;30.44;28.28;100416.56;5009034;28;20050;-77
2023/09/16 02:26:49;;;;;;;5.85;2.28;;;;;;;30.29;28.98;100414.78;5011561;28;20997;-78
2023/09/16 02:29:18;;;;;;;9.85;2.47;;;;;;;30.12;28.58;100414.84;5003344;28;20516;-77
2023/09/16 02:31:52;;;;;;;3.03;1.98;;;;;;;29.93;29.79;100412.38;5001891;28;20049;-77
2023/09/16 02:34:22;;;;;;;2.72;2.25;;;;;;;29.75;29.85;100415.13;5003355;28;20129;-80
2023/09/16 02:36:50;;;;;;;3.10;2.00;;;;;;;29.60;29.96;100411.50;5005765;28;20097;-78
2023/09/16 02:39:19;;;;;;;3.83;2.13;;;;;;;29.45;29.49;100418.50;5010302;28;20511;-79
2023/09/16 02:41:47;;;;;;;5.20;2.20;;;;;;;29.29;31.31;100411.44;5008200;28;20050;-76
2023/09/16 02:44:20;;;;;;;4.32;1.90;;;;;;;29.12;31.05;100412.34;5007856;28;20071;-77
2023/09/16 02:46:49;;;;;;;4.93;2.28;;;;;;;28.94;30.99;100409.69;5007656;28;20086;-78
2023/09/16 02:49:18;;;;;;;3.63;2.00;;;;;;;28.78;30.95;100424.72;5001176;28;20046;-78
2023/09/16 02:51:49;;;;;;;12.20;2.03;;;;;;;28.64;30.76;100429.91;4994245;28;20046;-76
2023/09/16 02:54:18;;;;;;;11.18;2.58;;;;;;;28.53;31.44;100427.78;5005608;28;20041;-77
2023/09/16 02:56:46;;;;;;;5.55;2.00;;;;;;;28.31;31.87;100427.97;5001541;28;20117;-77
2023/09/16 02:59:15;;;;;;;7.15;2.20;;;;;;;28.10;31.88;100430.72;5005876;28;20784;-75
2023/09/16 03:01:45;;;;;;;4.32;2.00;;;;;;;27.93;32.02;100428.91;5004190;28;20408;-77
2023/09/16 03:04:20;;;;;;;6.30;2.30;;;;;;;27.78;32.58;100437.56;5010134;28;20058;-78
2023/09/16 03:06:50;;;;;;;3.15;1.65;;;;;;;27.64;32.77;100435.56;5004129;28;20073;-76
2023/09/16 03:09:19;;;;;;;5.35;1.83;;;;;;;27.51;32.97;100442.34;5007155;28;20404;-77
2023/09/16 03:11:48;;;;;;;7.57;2.20;;;;;;;27.39;32.97;100440.28;5002055;28;20059;-77
2023/09/16 03:14:21;;;;;;;6.43;1.80;;;;;;;27.30;34.09;100455.69;5003984;28;20082;-77
2023/09/16 03:16:50;;;;;;;6.07;2.00;;;;;;;27.20;34.27;100448.19;5002072;28;20111;-75
2023/09/16 03:19:18;;;;;;;5.32;1.98;;;;;;;27.11;33.86;100460.06;5004541;28;20643;-76
2023/09/16 03:21:47;;;;;;;6.07;2.20;;;;;;;27.02;33.97;100460.47;4995873;28;20534;-77
2023/09/16 03:24:20;;;;;;;7.15;2.40;;;;;;;26.94;34.27;100464.34;5008200;28;20646;-77
2023/09/16 03:26:49;;;;;;;7.88;2.08;;;;;;;26.77;34.36;100450.91;5005497;28;20095;-77
2023/09/16 03:29:19;;;;;;;10.68;2.45;;;;;;;26.79;35.20;100464.13;4998140;28;20534;-78
2023/09/16 03:31:48;;;;;;;6.50;2.33;;;;;;;26.69;35.70;100467.16;4999980;28;20046;-75
2023/09/16 03:34:17;;;;;;;4.78;2.03;;;;;;;26.58;35.37;100469.41;5003565;28;20050;-78
2023/09/16 03:36:48;;;;;;;8.43;2.30;;;;;;;26.48;35.55;100478.63;4995311;28;20042;-77
2023/09/16 03:39:19;;;;;;;7.35;2.70;;;;;;;26.39;35.05;100481.66;5000887;28;20058;-76
2023/09/16 03:41:48;;;;;;;4.95;2.70;;;;;;;26.30;34.75;100477.59;4994976;28;20137;-77
2023/09/16 03:44:17;;;;;;;9.35;2.67;;;;;;;26.22;34.44;100475.25;4994877;28;20084;-76
2023/09/16 03:46:55;;;;;;;7.20;2.67;;;;;;;26.12;35.28;100480.06;5004960;28;20603;-77
2023/09/16 03:49:24;;;;;;;7.20;2.58;;;;;;;26.01;35.18;100482.25;5004243;28;20112;-77
2023/09/16 03:51:52;;;;;;;6.95;2.88;;;;;;;25.92;35.34;100483.47;5003908;28;20053;-78
2023/09/16 03:54:23;;;;;;;14.38;2.85;;;;;;;25.82;34.82;100487.38;5009329;28;20080;-75
2023/09/16 03:56:53;;;;;;;8.35;2.50;;;;;;;25.77;34.92;100488.47;4997819;28;20050;-75
2023/09/16 03:59:22;;;;;;;4.97;2.60;;;;;;;25.67;34.34;100482.66;4998362;28;20387;-75
2023/09/16 04:01:50;;;;;;;4.70;2.15;;;;;;;25.57;34.13;100483.94;4997675;28;20053;-75
2023/09/16 04:04:19;;;;;;;8.02;2.25;;;;;;;25.50;34.00;100485.94;4999051;28;20095;-75
2023/09/16 04:06:49;;;;;;;4.80;2.63;;;;;;;25.41;34.63;100492.44;5002828;28;20045;-77
2023/09/16 04:09:19;;;;;;;12.15;2.80;;;;;;;25.35;34.04;100491.78;5000029;28;20093;-78
2023/09/16 04:11:49;;;;;;;7.95;2.60;;;;;;;25.30;35.40;100499.88;4996700;28;20568;-76
2023/09/16 04:14:20;;;;;;;5.45;2.60;;;;;;;25.23;35.97;100498.38;5006103;28;20542;-75
2023/09/16 04:16:52;;;;;;;7.73;2.47;;;;;;;25.19;36.28;100499.41;5003483;28;20058;-76
2023/09/16 04:19:21;;;;;;;;;;;;;;;25.12;38.41;100501.38;5005928;28;20046;-76
2023/09/16 04:21:51;;;;;;;5.75;2.13;;;;;;;25.08;37.11;100494.44;5001689;28;19937;-76
2023/09/16 04:24:21;;;;;;;6.00;2.10;;;;;;;25.02;36.75;100489.38;5010714;28;20061;-77
2023/09/16 04:26:52;;;;;;;4.38;2.20;;;;;;;24.95;36.36;100488.72;5005870;28;20085;-74
2023/09/16 04:29:23;;;;;;;6.55;2.65;;;;;;;24.91;36.49;100488.88;5012115;28;20495;-76
2023/09/16 04:31:52;;;;;;;8.77;3.00;;;;;;;24.84;37.33;100482.94;4997255;28;20086;-77
2023/09/16 04:34:21;;;;;;;6.80;2.47;;;;;;;24.80;37.54;100484.81;4999757;28;20114;-76
2023/09/16 04:36:50;;;;;;;9.65;2.30;;;;;;;24.74;40.06;100495.63;5002579;28;20135;-76
2023/09/16 04:39:23;;;;;;;9.20;2.83;;;;;;;24.67;38.76;100494.09;5011193;28;20096;-77
2023/09/16 04:41:54;;;;;;;10.10;2.78;;;;;;;24.62;37.94;100493.34;4999667;28;20078;-76
2023/09/16 04:44:23;;;;;;;7.43;2.58;;;;;;;24.57;37.74;100492.66;4995441;28;20122;-75
2023/09/16 04:46:53;;;;;;;8.40;2.67;;;;;;;24.44;38.36;100493.03;4997461;28;20097;-77
2023/09/16 04:49:21;;;;;;;5.43;2.10;;;;;;;24.37;39.82;100490.59;4997535;28;20526;-77
2023/09/16 04:51:50;;;;;;;8.32;2.20;;;;;;;24.30;40.41;100495.22;5000545;28;20496;-78
2023/09/16 04:54:18;;;;;;;7.28;2.08;;;;;;;24.22;40.28;100498.13;5007770;28;20696;-75
2023/09/16 04:56:47;;;;;;;5.38;2.17;;;;;;;24.14;40.07;100500.13;5003415;28;20052;-74
2023/09/16 04:59:17;;;;;;;6.97;2.63;;;;;;;24.08;39.47;100508.25;5004903;28;20060;-76
2023/09/16 05:01:52;;;;;;;6.43;2.22;;;;;;;24.02;39.34;100503.16;5003897;28;20054;-77
2023/09/16 05:04:21;;;;;;;7.35;2.60;;;;;;;23.85;40.59;100508.94;5004951;28;20075;-76
2023/09/16 05:06:49;;;;;;;8.10;2.47;;;;;;;23.74;40.21;100513.63;5002706;28;20048;-77
2023/09/16 05:09:18;;;;;;;7.45;2.47;;;;;;;23.66;41.45;100519.13;5007402;28;20047;-77
2023/09/16 05:11:51;;;;;;;12.88;2.30;;;;;;;23.56;40.28;100515.88;4998527;28;20393;-76
2023/09/16 05:14:21;;;;;;;7.18;1.98;;;;;;;23.51;41.15;100515.16;4995874;28;20083;-75
2023/09/16 05:16:49;;;;;;;6.65;2.35;;;;;;;23.44;40.38;100521.50;5004014;28;20061;-76
2023/09/16 05:19:18;;;;;;;9.27;2.83;;;;;;;23.36;41.99;100515.56;5001327;28;20046;-79
2023/09/16 05:21:47;;;;;;;7.07;2.83;;;;;;;23.19;41.96;100519.53;4997895;28;20092;-76
2023/09/16 05:24:15;;;;;;;8.82;2.53;;;;;;;23.11;42.27;100523.25;5008389;28;20640;-77
2023/09/16 05:26:44;;;;;;;6.20;2.10;;;;;;;23.04;42.62;100519.06;4998876;28;20109;-77
2023/09/16 05:29:13;;;;;;;12.88;2.50;;;;;;;22.92;43.31;100520.22;5001309;28;20052;-77
2023/09/16 05:31:43;;;;;;;5.43;2.45;;;;;;;22.78;43.09;100526.69;5004629;28;20042;-79
2023/09/16 05:34:12;;;;;;;11.75;2.55;;;;;;;22.68;43.23;100519.91;5000156;28;20038;-78
2023/09/16 05:36:43;;;;;;;8.23;2.55;;;;;;;22.58;44.07;100521.03;5002977;28;20089;-77
2023/09/16 05:39:12;;;;;;;7.25;2.70;;;;;;;22.45;44.22;100516.94;5003817;28;20058;-76
2023/09/16 05:41:40;;;;;;;8.38;2.40;;;;;;;22.36;44.53;100513.63;4999673;28;20130;-76
2023/09/16 05:44:09;;;;;;;6.82;2.53;;;;;;;22.30;45.53;100513.75;4996187;28;20129;-79
2023/09/16 05:46:40;;;;;;;6.50;2.22;;;;;;;22.24;46.43;100507.75;5002135;28;20041;-77
2023/09/16 05:49:11;;;;;;;6.72;2.20;;;;;;;22.14;46.43;100507.94;5004241;28;20048;-78
2023/09/16 05:51:43;;;;;;;5.82;2.20;;;;;;;22.04;46.69;100509.06;5002768;28;20042;-79
2023/09/16 05:54:17;;;;;;;4.85;2.03;;;;;;;21.96;46.49;100511.84;5008688;28;20128;-78
2023/09/16 05:56:46;;;;;;;7.88;2.67;;;;;;;21.94;45.99;100515.41;5007360;28;20076;-78
2023/09/16 05:59:15;;;;;;;7.45;2.88;;;;;;;21.89;45.28;100507.59;5003721;28;20046;-79
2023/09/16 06:01:44;;;;;;;5.95;2.33;;;;;;;21.85;45.80;100507.69;5003713;28;20358;-77
2023/09/16 06:04:14;;;;;;;9.52;2.30;;;;;;;21.81;45.68;100506.06;5012701;28;20042;-78
2023/09/16 06:06:49;;;;;;;3.95;2.53;;;;;;;21.78;46.03;100506.94;5001967;28;20077;-77
2023/09/16 06:09:17;;;;;;;5.45;1.98;;;;;;;21.77;46.89;100504.38;5007945;28;20656;-76
2023/09/16 06:11:46;;;;;;;7.88;2.15;;;;;;;21.76;46.58;100508.75;5014280;28;20491;-78
2023/09/16 06:14:15;;;;;;;6.70;2.40;;;;;;;21.75;47.30;100507.03;5001967;28;20061;-76
2023/09/16 06:16:45;;;;;;;7.78;2.70;;;;;;;21.74;47.25;100510.56;5010104;28;20058;-77
2023/09/16 06:19:15;;;;;;;6.45;2.45;;;;;;;21.72;46.39;100512.38;5001941;28;20050;-77
2023/09/16 06:21:44;;;;;;;10.85;2.70;;;;;;;21.72;47.18;100507.09;5017118;28;20053;-76
2023/09/16 06:24:12;;;;;;;7.90;2.35;;;;;;;21.69;49.39;100512.41;5002506;28;20066;-77
2023/09/16 06:26:41;;;;;;;5.88;1.98;;;;;;;21.60;49.60;100517.84;5007360;28;20053;-78
2023/09/16 06:29:12;;;;;;;4.50;2.17;;;;;;;21.46;49.29;100515.50;5002141;28;20050;-76
2023/09/16 06:31:40;;;;;;;6.13;1.92;;;;;;;21.37;48.88;100524.41;5006881;28;20046;-77
2023/09/16 06:34:09;;;;;;;6.25;2.20;;;;;;;21.32;48.49;100521.00;4995953;28;20057;-80
2023/09/16 06:36:41;;;;;;;5.63;3.15;;;;;;;21.22;48.99;100527.34;5007462;28;20046;-80
2023/09/16 06:39:11;;;;;;;3.20;1.90;;;;;;;21.13;49.00;100523.97;5007434;28;20106;-78
2023/09/16 06:41:40;;;;;;;6.18;2.20;;;;;;;21.04;49.24;100521.50;5008652;28;20050;-81
2023/09/16 06:44:09;;;;;;;2.67;1.70;;;;;;;21.00;49.66;100532.94;5008651;28;20046;-80
2023/09/16 06:46:40;;;;;;;4.88;1.75;;;;;;;20.97;49.85;100540.03;5007232;28;20074;-77
2023/09/16 06:49:09;;;;;;;3.20;1.83;;;;;;;20.91;49.11;100527.84;5011047;28;20046;-79
2023/09/16 06:51:39;;;;;;;3.85;2.08;;;;;;;20.85;49.44;100534.09;5020097;28;20291;-78
2023/09/16 06:54:08;;;;;;;4.35;1.80;;;;;;;20.81;48.78;100542.06;5001505;28;20082;-77
2023/09/16 06:56:36;;;;;;;3.97;2.03;;;;;;;20.77;49.52;100543.84;5019845;28;20101;-76
2023/09/16 06:59:05;;;;;;;7.80;1.83;;;;;;;20.75;49.48;100548.25;4999532;28;20555;-77
2023/09/16 07:01:34;;;;;;;6.03;1.77;;;;;;;20.74;51.11;100548.31;5007798;28;20046;-80
2023/09/16 07:04:02;;;;;;;8.15;2.22;;;;;;;20.63;53.48;100553.72;5001536;28;20151;-80
2023/09/16 07:06:31;;;;;;;4.00;2.13;;;;;;;20.51;52.91;100546.88;5007074;28;20041;-77
2023/09/16 07:09:02;;;;;;;4.80;1.83;;;;;;;20.46;52.05;100539.03;5010268;28;20045;-79
2023/09/16 07:11:30;;;;;;;6.18;1.85;;;;;;;20.41;52.11;100545.25;5011320;28;20041;-79
2023/09/16 07:14:04;;;;;;;6.80;2.08;;;;;;;20.35;52.59;100547.97;5017045;28;20530;-80
2023/09/16 07:16:42;;;;;;;6.18;1.90;;;;;;;20.31;53.36;100560.28;5009372;28;20514;-76
2023/09/16 07:19:10;;;;;;;4.85;1.80;;;;;;;20.27;52.66;100556.84;5009207;28;20069;-81
2023/09/16 07:21:43;;;;;;;7.47;2.10;;;;;;;20.24;52.50;100556.00;5018195;28;20047;-79
2023/09/16 07:24:13;;;;;;;6.57;2.30;;;;;;;20.19;54.39;100553.44;5020594;28;20053;-76
2023/09/16 07:26:43;;;;;;;4.13;1.77;;;;;;;20.15;54.42;100551.72;5030513;28;20050;-77
2023/09/16 07:29:19;;;;;;;4.63;1.80;;;;;;;20.11;54.32;100560.53;5031851;28;20042;-74
2023/09/16 07:31:47;;;;;;;6.20;1.90;;;;;;;20.07;54.12;100558.84;5024538;28;20113;-72
2023/09/16 07:34:19;;;;;;;8.10;2.97;;;;;;;19.92;53.82;100549.41;5025391;28;20164;-74
2023/09/16 07:36:47;;;;;;;4.95;1.75;;;;;;;19.97;54.27;100567.72;5015468;28;20581;-75
2023/09/16 07:39:19;;;;;;;7.55;1.83;;;;;;;19.92;55.00;100566.91;5009909;28;20048;-75
2023/09/16 07:41:48;;;;;;;10.27;2.20;;;;;;;19.84;55.90;100573.13;5012442;28;20057;-76
2023/09/16 07:44:17;;;;;;;6.35;2.15;;;;;;;19.80;55.94;100573.19;5007564;28;20054;-74
2023/09/16 07:46:45;;;;;;;2.80;1.80;;;;;;;19.75;57.50;100568.00;5007252;28;20145;-74
2023/09/16 07:49:14;;;;;;;9.30;1.65;;;;;;;19.70;58.73;100569.81;5003173;28;20510;-75
2023/09/16 07:51:45;;;;;;;5.80;2.10;;;;;;;19.62;59.55;100568.97;5014482;28;20041;-76
2023/09/16 07:54:15;;;;;;;4.23;1.70;;;;;;;19.53;59.50;100571.69;5016685;28;20069;-75
2023/09/16 07:56:45;;;;;;;3.92;2.05;;;;;;;19.42;60.28;100575.31;5006545;28;20050;-76
2023/09/16 07:59:17;;;;;;;5.18;1.52;;;;;;;19.35;61.08;100580.59;5004230;28;20046;-76
2023/09/16 08:01:45;;;;;;;;;;;;;;;19.30;60.59;100575.41;5012134;28;20661;-77
2023/09/16 08:04:14;;;;;;;13.43;3.30;;;;;;;19.29;60.87;100578.94;5003917;28;20371;-74
2023/09/16 08:06:42;;;;;;;8.90;2.28;;;;;;;19.29;60.31;100575.41;5006797;28;20568;-75
2023/09/16 08:09:11;;;;;;;10.38;2.40;;;;;;;19.23;59.87;100581.59;5010353;28;20095;-74
2023/09/16 08:11:39;;;;;;;2.17;1.40;;;;;;;19.20;60.00;100576.38;4997570;28;20104;-77
2023/09/16 08:14:10;;;;;;;2.70;1.80;;;;;;;19.17;60.78;100579.00;5004154;28;20627;-76
2023/09/16 08:16:38;;;;;;;5.40;1.95;;;;;;;19.14;61.98;100573.81;5009929;28;20041;-77
2023/09/16 08:19:07;;;;;;;5.65;2.20;;;;;;;19.07;61.73;100566.88;5004049;28;20058;-75
2023/09/16 08:21:35;;;;;;;4.00;1.85;;;;;;;19.05;60.96;100574.75;5009813;28;20050;-75
2023/09/16 08:24:04;;;;;;;6.25;2.00;;;;;;;19.01;60.61;100573.91;5012926;28;20492;-76
2023/09/16 08:26:33;;;;;;;5.13;2.00;;;;;;;18.91;61.08;100577.47;5001740;28;20108;-76
2023/09/16 08:29:01;;;;;;;6.15;1.80;;;;;;;18.83;60.68;100571.44;5006319;28;20132;-76
2023/09/16 08:31:32;;;;;;;2.88;1.73;;;;;;;18.80;60.67;100576.69;5008657;28;20077;-75
2023/09/16 08:34:03;;;;;;;4.88;1.88;;;;;;;18.75;60.91;100576.69;5008197;28;20144;-76
2023/09/16 08:36:31;;;;;;;4.82;2.03;;;;;;;18.70;62.11;100575.00;5001518;28;20503;-76
2023/09/16 08:39:00;;;;;;;7.40;2.22;;;;;;;18.67;61.23;100575.88;5013332;28;20137;-75
2023/09/16 08:41:32;;;;;;;5.22;2.10;;;;;;;18.63;61.67;100574.16;5007628;28;20045;-75
2023/09/16 08:44:05;;;;;;;3.97;1.80;;;;;;;18.59;61.46;100573.28;5002278;28;20050;-75
2023/09/16 08:46:40;;;;;;;8.55;2.80;;;;;;;18.56;62.60;100581.19;5008356;28;20096;-75
2023/09/16 08:49:12;;;;;;;4.97;2.35;;;;;;;18.52;62.35;100584.69;5004098;28;20050;-76
2023/09/16 08:51:44;;;;;;;3.53;2.00;;;;;;;18.49;61.23;100579.47;5001088;28;20515;-77
2023/09/16 08:54:13;;;;;;;5.85;1.98;;;;;;;18.46;60.94;100589.09;5001651;28;20109;-75
2023/09/16 08:56:44;;;;;;;5.20;1.88;;;;;;;18.38;61.61;100586.53;5004143;28;20603;-76
2023/09/16 08:59:13;;;;;;;3.92;1.73;;;;;;;18.30;61.60;100576.09;5009701;28;20540;-76
2023/09/16 09:01:45;;;;;;;5.57;1.90;;;;;;;18.27;62.13;100589.19;5007244;28;20105;-74
2023/09/16 09:04:14;;;;;;;5.50;2.28;;;;;;;18.25;61.86;100590.09;5002417;28;20042;-76
2023/09/16 09:06:45;;;;;;;4.72;2.00;;;;;;;18.23;61.80;100576.97;5001771;28;20050;-76
2023/09/16 09:09:16;;;;;;;9.30;1.97;;;;;;;18.20;62.27;100583.13;4997915;28;20622;-76
2023/09/16 09:11:45;;;;;;;4.72;1.95;;;;;;;18.16;62.48;100583.13;5003583;28;20359;-77
2023/09/16 09:14:15;;;;;;;4.53;1.83;;;;;;;18.13;63.13;100585.78;5008308;28;20046;-76
2023/09/16 09:16:46;;;;;;;8.07;2.17;;;;;;;18.08;62.24;100583.19;5006031;28;20046;-76
2023/09/16 09:19:16;;;;;;;3.67;1.98;;;;;;;18.00;64.10;100584.94;5008470;28;20041;-77
2023/09/16 09:21:46;;;;;;;8.73;1.98;;;;;;;17.94;66.18;100575.38;5007677;28;20599;-77
2023/09/16 09:24:15;;;;;;;9.73;2.25;;;;;;;17.82;68.91;100569.31;4999676;28;20050;-78
2023/09/16 09:26:43;;;;;;;8.52;1.70;;;;;;;17.80;69.57;100571.91;5004741;28;20045;-77
2023/09/16 09:29:13;;;;;;;5.05;1.95;;;;;;;17.74;69.85;100578.03;5008840;28;20117;-77
2023/09/16 09:31:42;;;;;;;4.60;1.83;;;;;;;17.69;68.88;100573.69;5007135;28;20042;-77
2023/09/16 09:34:18;;;;;;;8.93;2.20;;;;;;;17.67;67.71;100576.28;5005414;28;20434;-76
2023/09/16 09:36:48;;;;;;;4.20;1.48;;;;;;;17.65;68.22;100570.19;5006200;28;20045;-75
2023/09/16 09:39:18;;;;;;;4.85;2.17;;;;;;;17.62;67.66;100582.44;5002065;28;20587;-75
2023/09/16 09:41:49;;;;;;;3.35;1.90;;;;;;;17.57;67.29;100577.22;5002608;28;20052;-76
2023/09/16 09:44:18;;;;;;;4.30;1.75;;;;;;;17.53;67.14;100575.47;5002472;28;20085;-76
2023/09/16 09:46:47;;;;;;;3.60;1.63;;;;;;;17.49;68.04;100571.97;5000688;28;20068;-75
2023/09/16 09:49:15;;;;;;;3.95;1.98;;;;;;;17.47;67.68;100568.47;5007818;28;20062;-76
2023/09/16 09:51:55;;;;;;;4.40;1.88;;;;;;;17.37;68.75;100549.31;5002817;28;20046;-76
2023/09/16 09:54:24;;;;;;;6.45;1.88;;;;;;;17.41;68.26;100562.38;5006757;28;20096;-76
2023/09/16 09:56:53;;;;;;;5.03;1.98;;;;;;;17.38;68.25;100564.16;5002559;28;20112;-75
2023/09/16 09:59:24;;;;;;;4.78;1.70;;;;;;;17.35;68.58;100565.91;5015584;28;20053;-75
2023/09/16 10:01:53;;;;;;;4.07;1.77;;;;;;;17.32;67.67;100569.38;5010439;28;20050;-77
2023/09/16 10:04:22;;;;;;;6.10;1.70;;;;;;;17.25;68.39;100572.88;5005745;28;20532;-75
2023/09/16 10:06:53;;;;;;;7.45;3.17;;;;;;;17.19;68.96;100572.88;5007064;28;20045;-75
2023/09/16 10:09:25;;;;;;;4.20;2.17;;;;;;;17.17;69.47;100575.47;5005180;28;20050;-75
2023/09/16 10:11:53;;;;;;;5.23;1.97;;;;;;;17.15;69.42;100568.53;5007501;28;20117;-76
2023/09/16 10:14:22;;;;;;;9.57;1.73;;;;;;;17.14;68.90;100572.88;4999676;28;20050;-75
2023/09/16 10:16:51;;;;;;;6.03;1.85;;;;;;;17.06;69.12;100566.78;5018717;28;20045;-75
2023/09/16 10:19:22;;;;;;;5.38;2.08;;;;;;;17.09;69.13;100571.16;5009409;28;20073;-75
2023/09/16 10:21:52;;;;;;;5.90;2.30;;;;;;;17.07;68.65;100570.28;5008749;28;20130;-76
2023/09/16 10:24:22;;;;;;;4.35;2.40;;;;;;;17.02;69.12;100587.69;5014147;28;20089;-76
2023/09/16 10:26:51;;;;;;;8.57;2.38;;;;;;;16.95;70.13;100590.31;5012730;28;20491;-76
2023/09/16 10:29:20;;;;;;;3.15;1.80;;;;;;;16.91;69.73;100582.47;5009502;28;20061;-76
2023/09/16 10:31:55;;;;;;;6.72;2.22;;;;;;;16.89;69.21;100590.31;5007787;28;20049;-77
2023/09/16 10:34:23;;;;;;;3.80;1.88;;;;;;;16.87;70.07;100597.25;5006232;28;20685;-76
2023/09/16 10:36:54;;;;;;;4.97;1.77;;;;;;;16.86;71.30;100595.53;5010769;28;20103;-77
2023/09/16 10:39:24;;;;;;;8.35;2.22;;;;;;;16.84;72.17;100589.44;5009847;28;20103;-77
2023/09/16 10:41:56;;;;;;;3.40;1.80;;;;;;;16.84;73.17;100586.81;5013148;28;20057;-77
2023/09/16 10:44:25;;;;;;;7.25;2.33;;;;;;;16.84;73.19;100597.28;5008892;28;20041;-76
2023/09/16 10:46:56;;;;;;;3.83;1.67;;;;;;;16.83;73.14;100595.50;5006551;28;20046;-75
2023/09/16 10:49:24;;;;;;;5.97;1.85;;;;;;;16.78;72.78;100594.59;5010903;28;20583;-77
2023/09/16 10:51:59;;;;;;;5.30;1.77;;;;;;;16.70;73.34;100596.34;5016295;28;20049;-77
2023/09/16 10:54:34;;;;;;;6.38;2.03;;;;;;;16.63;72.60;100590.25;5008537;28;20064;-76
2023/09/16 10:57:12;;;;;;;3.72;2.10;;;;;;;16.56;73.50;100591.09;5006429;28;20060;-76
2023/09/16 10:59:41;;;;;;;5.93;2.15;;;;;;;16.51;73.82;100593.66;5009535;28;20118;-75
2023/09/16 11:02:22;;;;;;;4.68;1.98;;;;;;;16.49;74.48;100598.03;5011372;28;20101;-76
2023/09/16 11:04:58;;;;;;;4.47;1.95;;;;;;;16.46;74.01;100590.19;5009149;28;20567;-77
2023/09/16 11:07:35;;;;;;;8.82;2.97;;;;;;;16.43;74.42;100595.41;5004209;28;20053;-75
2023/09/16 11:10:05;;;;;;;2.75;1.55;;;;;;;16.42;74.87;100592.78;5008491;28;20053;-75
2023/09/16 11:12:37;;;;;;;6.65;1.83;;;;;;;16.40;74.73;100590.19;5003673;28;20157;-75
2023/09/16 11:15:09;;;;;;;2.78;1.70;;;;;;;16.38;75.32;100591.03;5016542;28;20113;-75
2023/09/16 11:17:40;;;;;;;2.85;1.67;;;;;;;16.33;74.40;100594.50;5003229;28;20378;-75
2023/09/16 11:20:21;;;;;;;4.45;1.75;;;;;;;16.28;74.62;100590.13;5010626;28;20045;-76
2023/09/16 11:22:52;;;;;;;4.03;1.95;;;;;;;16.26;74.74;100584.94;5010796;28;20056;-75
2023/09/16 11:25:21;;;;;;;8.10;1.67;;;;;;;16.23;74.81;100599.69;5014151;28;20535;-75
2023/09/16 11:27:52;;;;;;;3.50;1.77;;;;;;;16.21;74.59;100596.19;5008504;28;20054;-75
2023/09/16 11:30:21;;;;;;;4.75;1.85;;;;;;;16.18;74.31;100598.81;5013024;28;20412;-75
2023/09/16 11:33:28;;;;;;;2.47;1.40;;;;;;;16.16;74.03;100608.38;5011261;28;20387;-75
2023/09/16 11:36:14;;;;;;;4.18;2.38;;;;;;;16.15;75.13;100604.00;5010241;28;20085;-76
2023/09/16 11:38:58;;;;;;;3.80;2.08;;;;;;;16.13;75.44;100606.63;5005513;28;20050;-75
2023/09/16 11:41:26;;;;;;;6.43;2.13;;;;;;;16.07;75.48;100597.00;5005226;28;20056;-76